Brunswick Golden Isles Airport
KBQK : now visible

Airfield :











YOU CAN JOIN US ON...

 
LOGIN :

Register | Disclaimer

   EN    FR    IT 

 









Legend :    VFR   Marginal VFR   IFR   Intensive IFR   Very Intensive IFR
Visi :
Ceiling :
>= 8 km
>= 3000ft
5 to 8 km
1000 to 3000 ft
1500m to 5 km
500 to 1000 ft
800 to 1500m
200 to 500 ft
< 800m
< 200 ft
Symbols :   Thunderstorms  Fog  Heavy snow  Heavy precipitations  Wind > 20 kt






- Airport Elevation : 26 ft
- IATA code : BQK


KBQK - Brunswick Golden Isles

CURRENT METAR :
  • 021715Z AUTO 35005KT 10SM BKN026 SCT031 30/25 A3005 RMK AO2 LTG DSNT SE T02980248

EXPIRED METARs :
  • 021655Z AUTO 30006KT 10SM BKN026 30/24 A3006 RMK AO2 LTG DSNT SW T02980242
  • 021635Z AUTO 31006KT 10SM BKN024 29/24 A3006 RMK AO2 T02950243
  • 021615Z AUTO 27007KT 10SM BKN022 30/24 A3006 RMK AO2 T02980243
  • 021555Z AUTO 32006KT 10SM CLR 29/25 A3007 RMK AO2 T02920249
  • 021535Z AUTO 27006KT 10SM CLR 28/24 A3007 RMK AO2 LTG DSNT SE T02820242
  • 021515Z AUTO 27007KT 10SM CLR 28/24 A3007 RMK AO2 LTG DSNT SE T02780243
  • 021455Z AUTO 30005KT 10SM CLR 27/24 A3007 RMK AO2 LTG DSNT SE T02730243
  • 021435Z AUTO 31005KT 10SM SCT013 27/24 A3007 RMK AO2 LTG DSNT SE T02690241
  • 020255Z AUTO 27004KT 10SM SCT037 SCT043 23/23 A3006 RMK AO2 LTG DSNT E AND SE T02330229 60002

TAF N/A
KZJX FIR / North America



MET'MAP, your aeronautical weather chart ! - Copyright ORBIFLY December 2007 - Disclaimer

ORBIFLY MET'MAP TEAM :

Programming & Development : Alexandra Zaïnal
Original concept : Baudouin d'Aumeries
Technical & hardware support : Manuel Goepfert
Assistance : Marc-Olivier Méhu




SOURCES & CREDITS :

   NOAA       Earth
Advisory